Airfield :







YOU CAN JOIN US ON...

 
LOGIN :

Register | Disclaimer

   EN    FR    IT 

 









Legend :    VFR   Marginal VFR   IFR   Intensive IFR   Very Intensive IFR
Visi :
Ceiling :
>= 8 km
>= 3000ft
5 to 8 km
1000 to 3000 ft
1500m to 5 km
500 to 1000 ft
800 to 1500m
200 to 500 ft
< 800m
< 200 ft
Symbols :   Thunderstorms  Fog  Heavy snow  Heavy precipitations  Wind > 20 kt







- Airport Elevation : 76 ft
- IATA code : EGS


BIEG - Egilsstaðir

CURRENT METAR :
  • 221248Z 36007KT 9999 BKN017 OVC040 04/00 Q1005 R04/190095

EXPIRED METARs :
  • 221200Z 02011KT 9999 OVC022 03/00 Q1005 R04/290195
  • 221100Z 02009KT 9999 BKN009 BKN014 OVC022 03/01 Q1004 R04/290195

TAF TAF BIEG
Valid from the 22 at 12:00 until the 23 at 12:00 UTC


221048Z 2212/2312 03010KT 9999 -RASN BKN020 OVC030 TX06/2215Z TN00/2306Z
BECMG 2302/2305 3000 SNRA BKN004 OVC010
BECMG 2308/2310 7000 BKN013 OVC018
No reported NOTAMs for that airfield.



MET'MAP, your aeronautical weather chart ! - Copyright ORBIFLY December 2007 - Disclaimer

ORBIFLY MET'MAP TEAM :

Programming & Development : Alexandra Zaïnal
Concept & Development : Baudouin d'Aumeries
Co-Development & Prog : Marc-Olivier Méhu
Technical & hardware support : Manuel Goepfert

Contact : metmap@orbifly.com




SOURCES & CREDITS :

   NOAA